Doutor Camargo, Brazil
Current Conditions -  °F | °C
As of 6:00 PM on Thursday 23 Oct 2014 (Local Time) from SBMG Reporting Station
Scattered Clouds Scattered Clouds  
Wind Chill: 90°   Ceiling: Unl
Heat Index: 90°   Visibility: 6mi
Dew Point: 61°   Wind: 7mph
Humidity: 38%   Direction: 320°NW
Pressure: 29.88"   Gusts: NA
Location:  23.56°S, 52.22°W
Report Text: SBMG 232000Z 32006KT 9999 SCT040 32/16 Q1012
Loading
Personal Weather Stations






























Interactive Weather Map
Tropical Storm Tracking
New forecast layout! Learn more

10-Day Weather Forecast

Advertisements
Track Severe Weather on mobile